sensor_id;sensor_type;location;lat;lon;timestamp;P1;durP1;ratioP1;P2;durP2;ratioP2
59390;SDS011;53405;57.012;40.984;2022-09-20T00:01:31;1.90;;;0.70;;
59390;SDS011;53405;57.012;40.984;2022-09-20T00:04:00;2.58;;;0.70;;
59390;SDS011;53405;57.012;40.984;2022-09-20T00:06:31;2.95;;;0.70;;
59390;SDS011;53405;57.012;40.984;2022-09-20T00:08:59;3.13;;;0.60;;
59390;SDS011;53405;57.012;40.984;2022-09-20T00:11:30;2.42;;;0.70;;
59390;SDS011;53405;57.012;40.984;2022-09-20T00:14:00;2.88;;;0.88;;
59390;SDS011;53405;57.012;40.984;2022-09-20T00:16:31;4.90;;;0.75;;
59390;SDS011;53405;57.012;40.984;2022-09-20T00:19:01;3.38;;;0.80;;
59390;SDS011;53405;57.012;40.984;2022-09-20T00:21:31;5.55;;;0.80;;
59390;SDS011;53405;57.012;40.984;2022-09-20T00:24:00;2.08;;;1.00;;
59390;SDS011;53405;57.012;40.984;2022-09-20T00:26:27;4.25;;;0.65;;
59390;SDS011;53405;57.012;40.984;2022-09-20T00:28:56;4.65;;;0.80;;
59390;SDS011;53405;57.012;40.984;2022-09-20T00:31:24;5.32;;;0.77;;
59390;SDS011;53405;57.012;40.984;2022-09-20T00:33:52;1.20;;;0.70;;
59390;SDS011;53405;57.012;40.984;2022-09-20T00:36:42;4.68;;;1.38;;
59390;SDS011;53405;57.012;40.984;2022-09-20T00:39:12;4.28;;;0.70;;
59390;SDS011;53405;57.012;40.984;2022-09-20T00:47:21;1.90;;;0.93;;
59390;SDS011;53405;57.012;40.984;2022-09-20T00:49:57;1.95;;;0.80;;
59390;SDS011;53405;57.012;40.984;2022-09-20T00:52:46;2.78;;;0.80;;
59390;SDS011;53405;57.012;40.984;2022-09-20T00:55:17;1.77;;;0.80;;
59390;SDS011;53405;57.012;40.984;2022-09-20T00:57:46;4.25;;;0.90;;
59390;SDS011;53405;57.012;40.984;2022-09-20T01:00:14;2.15;;;0.90;;
59390;SDS011;53405;57.012;40.984;2022-09-20T01:02:45;3.15;;;1.20;;
59390;SDS011;53405;57.012;40.984;2022-09-20T01:05:15;4.75;;;0.77;;
59390;SDS011;53405;57.012;40.984;2022-09-20T01:07:45;4.78;;;1.50;;
59390;SDS011;53405;57.012;40.984;2022-09-20T01:10:16;2.70;;;0.80;;
59390;SDS011;53405;57.012;40.984;2022-09-20T01:12:44;2.67;;;0.70;;
59390;SDS011;53405;57.012;40.984;2022-09-20T01:17:43;1.85;;;0.73;;
59390;SDS011;53405;57.012;40.984;2022-09-20T01:20:21;1.88;;;0.70;;
59390;SDS011;53405;57.012;40.984;2022-09-20T01:23:08;3.53;;;0.98;;
59390;SDS011;53405;57.012;40.984;2022-09-20T01:25:50;5.50;;;1.00;;
59390;SDS011;53405;57.012;40.984;2022-09-20T01:31:53;6.20;;;1.17;;
59390;SDS011;53405;57.012;40.984;2022-09-20T01:34:33;3.90;;;0.90;;
59390;SDS011;53405;57.012;40.984;2022-09-20T01:42:20;4.00;;;1.10;;
59390;SDS011;53405;57.012;40.984;2022-09-20T01:45:09;2.22;;;0.88;;
59390;SDS011;53405;57.012;40.984;2022-09-20T01:48:00;4.10;;;1.00;;
59390;SDS011;53405;57.012;40.984;2022-09-20T02:00:21;3.67;;;1.20;;
59390;SDS011;53405;57.012;40.984;2022-09-20T02:19:21;4.32;;;0.90;;
59390;SDS011;53405;57.012;40.984;2022-09-20T02:22:08;2.70;;;0.90;;
59390;SDS011;53405;57.012;40.984;2022-09-20T02:27:42;6.38;;;1.00;;
59390;SDS011;53405;57.012;40.984;2022-09-20T02:39:18;3.50;;;1.08;;
59390;SDS011;53405;57.012;40.984;2022-09-20T02:47:32;3.65;;;0.98;;
59390;SDS011;53405;57.012;40.984;2022-09-20T02:55:58;4.75;;;1.20;;
59390;SDS011;53405;57.012;40.984;2022-09-20T03:09:55;2.33;;;1.10;;
59390;SDS011;53405;57.012;40.984;2022-09-20T03:17:47;1.77;;;0.90;;
59390;SDS011;53405;57.012;40.984;2022-09-20T03:20:23;2.53;;;1.08;;
59390;SDS011;53405;57.012;40.984;2022-09-20T03:23:18;2.53;;;1.00;;
59390;SDS011;53405;57.012;40.984;2022-09-20T03:41:07;4.05;;;1.02;;
59390;SDS011;53405;57.012;40.984;2022-09-20T03:46:25;4.45;;;1.17;;
59390;SDS011;53405;57.012;40.984;2022-09-20T04:03:02;4.22;;;1.30;;
59390;SDS011;53405;57.012;40.984;2022-09-20T04:11:42;4.00;;;1.10;;
59390;SDS011;53405;57.012;40.984;2022-09-20T04:17:23;2.88;;;1.00;;
59390;SDS011;53405;57.012;40.984;2022-09-20T04:23:19;3.92;;;1.00;;
59390;SDS011;53405;57.012;40.984;2022-09-20T04:26:06;4.47;;;1.33;;
59390;SDS011;53405;57.012;40.984;2022-09-20T04:28:42;2.88;;;1.20;;
59390;SDS011;53405;57.012;40.984;2022-09-20T04:33:53;3.47;;;1.10;;
59390;SDS011;53405;57.012;40.984;2022-09-20T04:47:54;3.47;;;1.10;;
59390;SDS011;53405;57.012;40.984;2022-09-20T04:53:43;2.47;;;1.10;;
59390;SDS011;53405;57.012;40.984;2022-09-20T04:59:26;4.95;;;1.30;;
59390;SDS011;53405;57.012;40.984;2022-09-20T05:31:18;4.07;;;1.38;;
59390;SDS011;53405;57.012;40.984;2022-09-20T05:37:18;4.72;;;1.20;;
59390;SDS011;53405;57.012;40.984;2022-09-20T05:40:17;3.10;;;1.10;;
59390;SDS011;53405;57.012;40.984;2022-09-20T05:48:30;4.05;;;1.33;;
59390;SDS011;53405;57.012;40.984;2022-09-20T05:55:05;4.47;;;1.48;;
59390;SDS011;53405;57.012;40.984;2022-09-20T06:15:57;2.85;;;0.90;;
59390;SDS011;53405;57.012;40.984;2022-09-20T06:19:12;6.10;;;1.10;;
59390;SDS011;53405;57.012;40.984;2022-09-20T06:22:02;4.97;;;1.10;;
59390;SDS011;53405;57.012;40.984;2022-09-20T06:31:04;4.90;;;1.00;;
59390;SDS011;53405;57.012;40.984;2022-09-20T06:34:04;3.92;;;0.95;;
59390;SDS011;53405;57.012;40.984;2022-09-20T06:36:59;5.95;;;1.08;;
59390;SDS011;53405;57.012;40.984;2022-09-20T06:40:17;2.35;;;0.90;;
59390;SDS011;53405;57.012;40.984;2022-09-20T06:43:58;3.00;;;1.00;;
59390;SDS011;53405;57.012;40.984;2022-09-20T06:46:56;3.05;;;1.00;;
59390;SDS011;53405;57.012;40.984;2022-09-20T06:49:49;6.40;;;1.17;;
59390;SDS011;53405;57.012;40.984;2022-09-20T06:52:38;2.30;;;0.98;;
59390;SDS011;53405;57.012;40.984;2022-09-20T06:55:29;4.20;;;1.20;;
59390;SDS011;53405;57.012;40.984;2022-09-20T06:58:44;2.05;;;1.00;;
59390;SDS011;53405;57.012;40.984;2022-09-20T07:02:56;4.72;;;0.95;;
59390;SDS011;53405;57.012;40.984;2022-09-20T07:05:44;4.15;;;0.93;;
59390;SDS011;53405;57.012;40.984;2022-09-20T07:08:35;2.75;;;0.90;;
59390;SDS011;53405;57.012;40.984;2022-09-20T07:11:23;3.95;;;1.00;;
59390;SDS011;53405;57.012;40.984;2022-09-20T07:14:12;4.72;;;1.00;;
59390;SDS011;53405;57.012;40.984;2022-09-20T07:19:50;5.00;;;1.30;;
59390;SDS011;53405;57.012;40.984;2022-09-20T07:22:39;2.28;;;0.90;;
59390;SDS011;53405;57.012;40.984;2022-09-20T07:25:30;2.65;;;1.00;;
59390;SDS011;53405;57.012;40.984;2022-09-20T07:28:18;2.67;;;1.00;;
59390;SDS011;53405;57.012;40.984;2022-09-20T07:31:06;3.92;;;1.08;;
59390;SDS011;53405;57.012;40.984;2022-09-20T07:33:54;4.10;;;1.27;;
59390;SDS011;53405;57.012;40.984;2022-09-20T07:36:42;4.43;;;1.33;;
59390;SDS011;53405;57.012;40.984;2022-09-20T07:39:29;2.17;;;1.10;;
59390;SDS011;53405;57.012;40.984;2022-09-20T07:42:17;3.90;;;1.10;;
59390;SDS011;53405;57.012;40.984;2022-09-20T07:45:05;6.38;;;1.25;;
59390;SDS011;53405;57.012;40.984;2022-09-20T07:47:56;2.85;;;1.00;;
59390;SDS011;53405;57.012;40.984;2022-09-20T07:50:55;6.32;;;2.08;;
59390;SDS011;53405;57.012;40.984;2022-09-20T07:53:45;8.20;;;1.00;;
59390;SDS011;53405;57.012;40.984;2022-09-20T07:56:32;4.63;;;1.13;;
59390;SDS011;53405;57.012;40.984;2022-09-20T07:59:20;9.60;;;1.30;;
59390;SDS011;53405;57.012;40.984;2022-09-20T08:02:14;3.70;;;1.08;;
59390;SDS011;53405;57.012;40.984;2022-09-20T08:05:02;3.35;;;1.10;;
59390;SDS011;53405;57.012;40.984;2022-09-20T08:07:50;1.80;;;1.00;;
59390;SDS011;53405;57.012;40.984;2022-09-20T08:10:38;4.15;;;1.00;;
59390;SDS011;53405;57.012;40.984;2022-09-20T08:13:26;1.88;;;0.90;;
59390;SDS011;53405;57.012;40.984;2022-09-20T08:16:37;6.10;;;1.20;;
59390;SDS011;53405;57.012;40.984;2022-09-20T08:19:14;5.25;;;1.42;;
59390;SDS011;53405;57.012;40.984;2022-09-20T08:21:43;3.85;;;1.38;;
59390;SDS011;53405;57.012;40.984;2022-09-20T08:24:11;3.50;;;1.35;;
59390;SDS011;53405;57.012;40.984;2022-09-20T08:26:38;4.30;;;1.10;;
59390;SDS011;53405;57.012;40.984;2022-09-20T08:29:06;5.05;;;1.20;;
59390;SDS011;53405;57.012;40.984;2022-09-20T08:31:35;4.78;;;1.30;;
59390;SDS011;53405;57.012;40.984;2022-09-20T08:34:04;5.78;;;1.70;;
59390;SDS011;53405;57.012;40.984;2022-09-20T08:36:35;7.40;;;1.25;;
59390;SDS011;53405;57.012;40.984;2022-09-20T08:39:07;6.55;;;1.40;;
59390;SDS011;53405;57.012;40.984;2022-09-20T08:44:28;4.00;;;1.30;;
59390;SDS011;53405;57.012;40.984;2022-09-20T08:47:04;4.97;;;1.17;;
59390;SDS011;53405;57.012;40.984;2022-09-20T08:49:41;5.37;;;1.17;;
59390;SDS011;53405;57.012;40.984;2022-09-20T08:52:15;2.92;;;1.10;;
59390;SDS011;53405;57.012;40.984;2022-09-20T08:54:46;3.35;;;1.00;;
59390;SDS011;53405;57.012;40.984;2022-09-20T08:57:15;4.40;;;1.05;;
59390;SDS011;53405;57.012;40.984;2022-09-20T08:59:46;2.67;;;1.08;;
59390;SDS011;53405;57.012;40.984;2022-09-20T09:02:15;4.65;;;1.40;;
59390;SDS011;53405;57.012;40.984;2022-09-20T09:05:05;3.53;;;1.02;;
59390;SDS011;53405;57.012;40.984;2022-09-20T09:08:23;7.70;;;1.65;;
59390;SDS011;53405;57.012;40.984;2022-09-20T09:11:14;5.78;;;1.10;;
59390;SDS011;53405;57.012;40.984;2022-09-20T09:14:09;2.95;;;1.20;;
59390;SDS011;53405;57.012;40.984;2022-09-20T09:17:22;1.70;;;0.73;;
59390;SDS011;53405;57.012;40.984;2022-09-20T09:20:17;6.95;;;1.17;;
59390;SDS011;53405;57.012;40.984;2022-09-20T09:23:18;3.03;;;1.00;;
59390;SDS011;53405;57.012;40.984;2022-09-20T09:26:16;5.72;;;1.00;;
59390;SDS011;53405;57.012;40.984;2022-09-20T09:32:20;3.03;;;1.10;;
59390;SDS011;53405;57.012;40.984;2022-09-20T09:35:22;7.35;;;1.50;;
59390;SDS011;53405;57.012;40.984;2022-09-20T09:38:18;4.80;;;1.10;;
59390;SDS011;53405;57.012;40.984;2022-09-20T09:41:29;5.90;;;1.60;;
59390;SDS011;53405;57.012;40.984;2022-09-20T09:47:20;4.43;;;0.98;;
59390;SDS011;53405;57.012;40.984;2022-09-20T09:50:21;2.75;;;1.00;;
59390;SDS011;53405;57.012;40.984;2022-09-20T09:53:21;3.03;;;0.90;;
59390;SDS011;53405;57.012;40.984;2022-09-20T09:56:11;2.50;;;1.08;;
59390;SDS011;53405;57.012;40.984;2022-09-20T09:59:19;2.17;;;0.82;;
59390;SDS011;53405;57.012;40.984;2022-09-20T10:08:13;3.20;;;0.93;;
59390;SDS011;53405;57.012;40.984;2022-09-20T10:14:44;3.30;;;1.00;;
59390;SDS011;53405;57.012;40.984;2022-09-20T10:17:40;2.25;;;0.95;;
59390;SDS011;53405;57.012;40.984;2022-09-20T10:20:50;3.08;;;1.10;;
59390;SDS011;53405;57.012;40.984;2022-09-20T10:23:46;4.32;;;1.10;;
59390;SDS011;53405;57.012;40.984;2022-09-20T10:26:58;2.85;;;1.17;;
59390;SDS011;53405;57.012;40.984;2022-09-20T10:29:58;2.83;;;1.00;;
59390;SDS011;53405;57.012;40.984;2022-09-20T10:38:50;5.03;;;1.30;;
59390;SDS011;53405;57.012;40.984;2022-09-20T10:49:16;6.40;;;1.50;;
59390;SDS011;53405;57.012;40.984;2022-09-20T10:52:15;5.13;;;1.38;;
59390;SDS011;53405;57.012;40.984;2022-09-20T11:04:55;3.45;;;1.00;;
59390;SDS011;53405;57.012;40.984;2022-09-20T11:08:05;3.85;;;1.15;;
59390;SDS011;53405;57.012;40.984;2022-09-20T11:16:55;2.20;;;0.90;;
59390;SDS011;53405;57.012;40.984;2022-09-20T11:23:38;6.47;;;1.20;;
59390;SDS011;53405;57.012;40.984;2022-09-20T11:26:37;4.85;;;1.50;;
59390;SDS011;53405;57.012;40.984;2022-09-20T11:32:26;4.13;;;1.02;;
59390;SDS011;53405;57.012;40.984;2022-09-20T11:44:18;2.17;;;0.90;;
59390;SDS011;53405;57.012;40.984;2022-09-20T11:47:16;3.20;;;1.02;;
59390;SDS011;53405;57.012;40.984;2022-09-20T11:54:02;5.03;;;1.40;;
59390;SDS011;53405;57.012;40.984;2022-09-20T11:57:13;1.60;;;0.98;;
59390;SDS011;53405;57.012;40.984;2022-09-20T12:00:03;3.97;;;1.02;;
59390;SDS011;53405;57.012;40.984;2022-09-20T12:03:00;2.33;;;0.82;;
59390;SDS011;53405;57.012;40.984;2022-09-20T12:06:37;3.03;;;0.80;;
59390;SDS011;53405;57.012;40.984;2022-09-20T12:09:34;3.85;;;1.00;;
59390;SDS011;53405;57.012;40.984;2022-09-20T12:16:01;6.00;;;1.98;;
59390;SDS011;53405;57.012;40.984;2022-09-20T12:22:15;4.00;;;1.40;;
59390;SDS011;53405;57.012;40.984;2022-09-20T12:24:47;3.40;;;1.20;;
59390;SDS011;53405;57.012;40.984;2022-09-20T12:30:20;6.88;;;1.10;;
59390;SDS011;53405;57.012;40.984;2022-09-20T12:36:40;2.63;;;1.20;;
59390;SDS011;53405;57.012;40.984;2022-09-20T12:39:49;3.40;;;1.30;;
59390;SDS011;53405;57.012;40.984;2022-09-20T12:42:39;4.28;;;1.30;;
59390;SDS011;53405;57.012;40.984;2022-09-20T12:45:29;4.35;;;1.27;;
59390;SDS011;53405;57.012;40.984;2022-09-20T12:48:17;3.63;;;1.40;;
59390;SDS011;53405;57.012;40.984;2022-09-20T12:51:17;6.13;;;1.33;;
59390;SDS011;53405;57.012;40.984;2022-09-20T12:54:29;4.95;;;1.42;;
59390;SDS011;53405;57.012;40.984;2022-09-20T12:57:28;3.78;;;1.20;;
59390;SDS011;53405;57.012;40.984;2022-09-20T13:00:31;5.95;;;1.38;;
59390;SDS011;53405;57.012;40.984;2022-09-20T13:06:22;3.65;;;1.10;;
59390;SDS011;53405;57.012;40.984;2022-09-20T13:09:11;3.78;;;1.10;;
59390;SDS011;53405;57.012;40.984;2022-09-20T13:12:00;3.87;;;1.07;;
59390;SDS011;53405;57.012;40.984;2022-09-20T13:14:49;6.00;;;1.10;;
59390;SDS011;53405;57.012;40.984;2022-09-20T13:17:38;6.55;;;1.17;;
59390;SDS011;53405;57.012;40.984;2022-09-20T13:20:28;2.70;;;1.10;;
59390;SDS011;53405;57.012;40.984;2022-09-20T13:23:22;4.32;;;1.73;;
59390;SDS011;53405;57.012;40.984;2022-09-20T13:26:13;4.47;;;1.20;;
59390;SDS011;53405;57.012;40.984;2022-09-20T13:29:02;7.20;;;1.60;;
59390;SDS011;53405;57.012;40.984;2022-09-20T13:31:53;4.97;;;1.40;;
59390;SDS011;53405;57.012;40.984;2022-09-20T13:34:42;8.32;;;1.80;;
59390;SDS011;53405;57.012;40.984;2022-09-20T13:37:29;4.68;;;1.60;;
59390;SDS011;53405;57.012;40.984;2022-09-20T13:40:21;3.55;;;1.48;;
59390;SDS011;53405;57.012;40.984;2022-09-20T13:43:32;3.90;;;1.90;;
59390;SDS011;53405;57.012;40.984;2022-09-20T13:46:31;3.83;;;1.30;;
59390;SDS011;53405;57.012;40.984;2022-09-20T13:49:20;5.03;;;1.30;;
59390;SDS011;53405;57.012;40.984;2022-09-20T13:52:31;4.53;;;1.67;;
59390;SDS011;53405;57.012;40.984;2022-09-20T13:58:20;6.57;;;1.55;;
59390;SDS011;53405;57.012;40.984;2022-09-20T14:01:20;4.07;;;1.58;;
59390;SDS011;53405;57.012;40.984;2022-09-20T14:04:24;8.65;;;1.85;;
59390;SDS011;53405;57.012;40.984;2022-09-20T14:07:14;4.13;;;1.70;;
59390;SDS011;53405;57.012;40.984;2022-09-20T14:10:03;4.70;;;1.80;;
59390;SDS011;53405;57.012;40.984;2022-09-20T14:12:58;4.07;;;1.40;;
59390;SDS011;53405;57.012;40.984;2022-09-20T14:15:48;4.45;;;1.50;;
59390;SDS011;53405;57.012;40.984;2022-09-20T14:18:38;6.22;;;1.40;;
59390;SDS011;53405;57.012;40.984;2022-09-20T14:21:30;5.68;;;1.65;;
59390;SDS011;53405;57.012;40.984;2022-09-20T14:24:22;15.45;;;2.50;;
59390;SDS011;53405;57.012;40.984;2022-09-20T14:27:20;5.50;;;1.65;;
59390;SDS011;53405;57.012;40.984;2022-09-20T14:33:28;6.78;;;1.98;;
59390;SDS011;53405;57.012;40.984;2022-09-20T14:36:18;5.18;;;1.30;;
59390;SDS011;53405;57.012;40.984;2022-09-20T14:39:15;3.97;;;2.08;;
59390;SDS011;53405;57.012;40.984;2022-09-20T14:42:13;5.28;;;1.70;;
59390;SDS011;53405;57.012;40.984;2022-09-20T14:45:05;5.03;;;1.60;;
59390;SDS011;53405;57.012;40.984;2022-09-20T14:56:53;4.38;;;1.92;;
59390;SDS011;53405;57.012;40.984;2022-09-20T14:59:44;5.60;;;1.73;;
59390;SDS011;53405;57.012;40.984;2022-09-20T15:02:46;5.15;;;1.70;;
59390;SDS011;53405;57.012;40.984;2022-09-20T15:05:34;6.05;;;2.05;;
59390;SDS011;53405;57.012;40.984;2022-09-20T15:08:22;3.78;;;1.77;;
59390;SDS011;53405;57.012;40.984;2022-09-20T15:11:14;5.10;;;1.90;;
59390;SDS011;53405;57.012;40.984;2022-09-20T15:14:03;7.15;;;2.20;;
59390;SDS011;53405;57.012;40.984;2022-09-20T15:16:50;6.75;;;2.80;;
59390;SDS011;53405;57.012;40.984;2022-09-20T15:19:38;3.75;;;1.60;;
59390;SDS011;53405;57.012;40.984;2022-09-20T15:22:25;3.35;;;1.65;;
59390;SDS011;53405;57.012;40.984;2022-09-20T15:25:14;4.28;;;1.80;;
59390;SDS011;53405;57.012;40.984;2022-09-20T15:28:04;5.22;;;2.35;;
59390;SDS011;53405;57.012;40.984;2022-09-20T15:30:56;6.47;;;2.50;;
59390;SDS011;53405;57.012;40.984;2022-09-20T15:33:56;7.32;;;2.90;;
59390;SDS011;53405;57.012;40.984;2022-09-20T15:36:45;6.50;;;2.80;;
59390;SDS011;53405;57.012;40.984;2022-09-20T15:42:25;4.25;;;2.08;;
59390;SDS011;53405;57.012;40.984;2022-09-20T15:45:15;8.95;;;2.53;;
59390;SDS011;53405;57.012;40.984;2022-09-20T15:48:04;6.07;;;2.70;;
59390;SDS011;53405;57.012;40.984;2022-09-20T15:51:08;5.40;;;2.33;;
59390;SDS011;53405;57.012;40.984;2022-09-20T15:54:05;6.47;;;2.33;;
59390;SDS011;53405;57.012;40.984;2022-09-20T15:56:53;7.35;;;2.20;;
59390;SDS011;53405;57.012;40.984;2022-09-20T15:59:41;6.28;;;2.40;;
59390;SDS011;53405;57.012;40.984;2022-09-20T16:02:28;5.80;;;2.33;;
59390;SDS011;53405;57.012;40.984;2022-09-20T16:05:17;6.85;;;2.17;;
59390;SDS011;53405;57.012;40.984;2022-09-20T16:08:04;6.97;;;2.30;;
59390;SDS011;53405;57.012;40.984;2022-09-20T16:10:58;10.32;;;5.57;;
59390;SDS011;53405;57.012;40.984;2022-09-20T16:13:51;5.82;;;2.10;;
59390;SDS011;53405;57.012;40.984;2022-09-20T16:16:43;7.40;;;3.17;;
59390;SDS011;53405;57.012;40.984;2022-09-20T16:19:30;5.00;;;2.72;;
59390;SDS011;53405;57.012;40.984;2022-09-20T16:22:18;6.97;;;3.25;;
59390;SDS011;53405;57.012;40.984;2022-09-20T16:25:06;4.80;;;2.22;;
59390;SDS011;53405;57.012;40.984;2022-09-20T16:27:56;8.68;;;2.78;;
59390;SDS011;53405;57.012;40.984;2022-09-20T16:30:54;6.20;;;2.50;;
59390;SDS011;53405;57.012;40.984;2022-09-20T16:33:43;7.22;;;2.50;;
59390;SDS011;53405;57.012;40.984;2022-09-20T16:36:31;5.88;;;3.05;;
59390;SDS011;53405;57.012;40.984;2022-09-20T16:39:21;5.85;;;2.25;;
59390;SDS011;53405;57.012;40.984;2022-09-20T16:42:19;4.88;;;2.10;;
59390;SDS011;53405;57.012;40.984;2022-09-20T16:45:14;4.68;;;2.50;;
59390;SDS011;53405;57.012;40.984;2022-09-20T16:48:04;5.30;;;2.47;;
59390;SDS011;53405;57.012;40.984;2022-09-20T16:50:55;6.20;;;2.60;;
59390;SDS011;53405;57.012;40.984;2022-09-20T16:53:47;6.20;;;2.40;;
59390;SDS011;53405;57.012;40.984;2022-09-20T16:56:45;7.05;;;2.58;;
59390;SDS011;53405;57.012;40.984;2022-09-20T16:59:34;7.82;;;2.58;;
59390;SDS011;53405;57.012;40.984;2022-09-20T17:02:25;8.77;;;2.58;;
59390;SDS011;53405;57.012;40.984;2022-09-20T17:05:12;5.40;;;2.38;;
59390;SDS011;53405;57.012;40.984;2022-09-20T17:08:00;9.98;;;3.00;;
59390;SDS011;53405;57.012;40.984;2022-09-20T17:10:48;6.25;;;2.83;;
59390;SDS011;53405;57.012;40.984;2022-09-20T17:13:18;6.65;;;2.78;;
59390;SDS011;53405;57.012;40.984;2022-09-20T17:15:45;7.93;;;4.00;;
59390;SDS011;53405;57.012;40.984;2022-09-20T17:18:14;6.03;;;3.50;;
59390;SDS011;53405;57.012;40.984;2022-09-20T17:20:42;6.82;;;3.60;;
59390;SDS011;53405;57.012;40.984;2022-09-20T17:23:09;5.47;;;2.70;;
59390;SDS011;53405;57.012;40.984;2022-09-20T17:25:37;5.70;;;2.92;;
59390;SDS011;53405;57.012;40.984;2022-09-20T17:28:05;5.05;;;2.60;;
59390;SDS011;53405;57.012;40.984;2022-09-20T17:30:32;9.23;;;3.50;;
59390;SDS011;53405;57.012;40.984;2022-09-20T17:33:00;7.97;;;2.92;;
59390;SDS011;53405;57.012;40.984;2022-09-20T17:35:29;9.20;;;3.50;;
59390;SDS011;53405;57.012;40.984;2022-09-20T17:38:00;7.82;;;3.10;;
59390;SDS011;53405;57.012;40.984;2022-09-20T17:40:31;6.07;;;3.25;;
59390;SDS011;53405;57.012;40.984;2022-09-20T17:43:11;6.97;;;4.10;;
59390;SDS011;53405;57.012;40.984;2022-09-20T17:45:40;7.05;;;3.33;;
59390;SDS011;53405;57.012;40.984;2022-09-20T17:48:08;7.80;;;3.33;;
59390;SDS011;53405;57.012;40.984;2022-09-20T17:50:36;6.97;;;2.92;;
59390;SDS011;53405;57.012;40.984;2022-09-20T17:53:04;13.00;;;6.40;;
59390;SDS011;53405;57.012;40.984;2022-09-20T17:55:31;8.35;;;3.20;;
59390;SDS011;53405;57.012;40.984;2022-09-20T17:58:00;8.38;;;3.60;;
59390;SDS011;53405;57.012;40.984;2022-09-20T18:00:27;6.82;;;3.17;;
59390;SDS011;53405;57.012;40.984;2022-09-20T18:02:54;5.72;;;3.10;;
59390;SDS011;53405;57.012;40.984;2022-09-20T18:05:22;7.53;;;3.60;;
59390;SDS011;53405;57.012;40.984;2022-09-20T18:07:50;8.48;;;3.08;;
59390;SDS011;53405;57.012;40.984;2022-09-20T18:10:18;23.03;;;15.23;;
59390;SDS011;53405;57.012;40.984;2022-09-20T18:12:45;10.52;;;4.90;;
59390;SDS011;53405;57.012;40.984;2022-09-20T18:15:13;6.63;;;3.08;;
59390;SDS011;53405;57.012;40.984;2022-09-20T18:17:40;5.38;;;3.25;;
59390;SDS011;53405;57.012;40.984;2022-09-20T18:20:07;8.07;;;2.97;;
59390;SDS011;53405;57.012;40.984;2022-09-20T18:22:36;6.60;;;2.70;;
59390;SDS011;53405;57.012;40.984;2022-09-20T18:25:06;7.63;;;2.75;;
59390;SDS011;53405;57.012;40.984;2022-09-20T18:27:50;8.57;;;3.10;;
59390;SDS011;53405;57.012;40.984;2022-09-20T18:30:18;5.90;;;2.90;;
59390;SDS011;53405;57.012;40.984;2022-09-20T18:32:50;8.07;;;2.92;;
59390;SDS011;53405;57.012;40.984;2022-09-20T18:35:18;6.43;;;2.50;;
59390;SDS011;53405;57.012;40.984;2022-09-20T18:37:45;4.75;;;2.55;;
59390;SDS011;53405;57.012;40.984;2022-09-20T18:40:13;6.57;;;2.70;;
59390;SDS011;53405;57.012;40.984;2022-09-20T18:42:41;8.07;;;2.67;;
59390;SDS011;53405;57.012;40.984;2022-09-20T18:45:08;7.05;;;3.60;;
59390;SDS011;53405;57.012;40.984;2022-09-20T18:47:36;6.72;;;2.78;;
59390;SDS011;53405;57.012;40.984;2022-09-20T18:50:04;5.40;;;3.10;;
59390;SDS011;53405;57.012;40.984;2022-09-20T18:52:44;4.45;;;2.47;;
59390;SDS011;53405;57.012;40.984;2022-09-20T18:55:11;7.07;;;3.70;;
59390;SDS011;53405;57.012;40.984;2022-09-20T18:57:40;7.93;;;3.88;;
59390;SDS011;53405;57.012;40.984;2022-09-20T19:00:09;6.43;;;3.00;;
59390;SDS011;53405;57.012;40.984;2022-09-20T19:05:36;6.43;;;4.05;;
59390;SDS011;53405;57.012;40.984;2022-09-20T19:08:22;8.55;;;4.78;;
59390;SDS011;53405;57.012;40.984;2022-09-20T19:11:01;7.93;;;2.80;;
59390;SDS011;53405;57.012;40.984;2022-09-20T19:13:45;6.75;;;3.20;;
59390;SDS011;53405;57.012;40.984;2022-09-20T19:16:33;5.70;;;3.10;;
59390;SDS011;53405;57.012;40.984;2022-09-20T19:24:47;5.68;;;3.20;;
59390;SDS011;53405;57.012;40.984;2022-09-20T19:27:18;5.20;;;3.13;;
59390;SDS011;53405;57.012;40.984;2022-09-20T19:29:46;4.32;;;2.83;;
59390;SDS011;53405;57.012;40.984;2022-09-20T19:32:15;7.68;;;3.03;;
59390;SDS011;53405;57.012;40.984;2022-09-20T19:34:50;7.50;;;3.10;;
59390;SDS011;53405;57.012;40.984;2022-09-20T19:40:22;5.47;;;3.10;;
59390;SDS011;53405;57.012;40.984;2022-09-20T19:43:37;5.78;;;3.13;;
59390;SDS011;53405;57.012;40.984;2022-09-20T19:52:17;6.82;;;3.47;;
59390;SDS011;53405;57.012;40.984;2022-09-20T19:54:45;7.05;;;3.67;;
59390;SDS011;53405;57.012;40.984;2022-09-20T19:59:48;6.53;;;3.65;;
59390;SDS011;53405;57.012;40.984;2022-09-20T20:02:17;7.82;;;3.70;;
59390;SDS011;53405;57.012;40.984;2022-09-20T20:04:44;8.00;;;3.85;;
59390;SDS011;53405;57.012;40.984;2022-09-20T20:07:15;8.45;;;3.58;;
59390;SDS011;53405;57.012;40.984;2022-09-20T20:12:34;6.70;;;3.90;;
59390;SDS011;53405;57.012;40.984;2022-09-20T20:20:53;7.80;;;3.72;;
59390;SDS011;53405;57.012;40.984;2022-09-20T20:23:47;6.57;;;3.53;;
59390;SDS011;53405;57.012;40.984;2022-09-20T20:26:22;8.35;;;3.90;;
59390;SDS011;53405;57.012;40.984;2022-09-20T20:28:51;7.15;;;3.85;;
59390;SDS011;53405;57.012;40.984;2022-09-20T20:31:19;8.10;;;3.80;;
59390;SDS011;53405;57.012;40.984;2022-09-20T20:33:47;5.45;;;3.70;;
59390;SDS011;53405;57.012;40.984;2022-09-20T20:36:15;8.63;;;4.30;;
59390;SDS011;53405;57.012;40.984;2022-09-20T20:38:44;7.50;;;3.92;;
59390;SDS011;53405;57.012;40.984;2022-09-20T20:41:19;7.88;;;4.57;;
59390;SDS011;53405;57.012;40.984;2022-09-20T20:43:50;7.50;;;3.95;;
59390;SDS011;53405;57.012;40.984;2022-09-20T20:46:22;7.00;;;3.88;;
59390;SDS011;53405;57.012;40.984;2022-09-20T20:48:51;6.78;;;3.90;;
59390;SDS011;53405;57.012;40.984;2022-09-20T20:51:21;6.53;;;4.00;;
59390;SDS011;53405;57.012;40.984;2022-09-20T20:53:50;6.97;;;3.85;;
59390;SDS011;53405;57.012;40.984;2022-09-20T20:56:19;7.70;;;4.30;;
59390;SDS011;53405;57.012;40.984;2022-09-20T20:58:55;6.47;;;4.07;;
59390;SDS011;53405;57.012;40.984;2022-09-20T21:01:30;10.15;;;4.75;;
59390;SDS011;53405;57.012;40.984;2022-09-20T21:03:59;8.35;;;4.20;;
59390;SDS011;53405;57.012;40.984;2022-09-20T21:06:28;8.10;;;3.95;;
59390;SDS011;53405;57.012;40.984;2022-09-20T21:08:59;7.03;;;4.60;;
59390;SDS011;53405;57.012;40.984;2022-09-20T21:11:29;9.95;;;4.30;;
59390;SDS011;53405;57.012;40.984;2022-09-20T21:13:59;7.35;;;4.47;;
59390;SDS011;53405;57.012;40.984;2022-09-20T21:16:31;10.00;;;4.80;;
59390;SDS011;53405;57.012;40.984;2022-09-20T21:19:02;8.63;;;4.88;;
59390;SDS011;53405;57.012;40.984;2022-09-20T21:21:34;10.13;;;4.85;;
59390;SDS011;53405;57.012;40.984;2022-09-20T21:24:07;9.45;;;5.03;;
59390;SDS011;53405;57.012;40.984;2022-09-20T21:29:04;9.52;;;5.03;;
59390;SDS011;53405;57.012;40.984;2022-09-20T21:31:42;9.30;;;5.18;;
59390;SDS011;53405;57.012;40.984;2022-09-20T21:36:39;8.15;;;5.15;;
59390;SDS011;53405;57.012;40.984;2022-09-20T21:39:11;8.82;;;5.40;;
59390;SDS011;53405;57.012;40.984;2022-09-20T21:41:39;7.53;;;4.90;;
59390;SDS011;53405;57.012;40.984;2022-09-20T21:44:06;9.48;;;5.07;;
59390;SDS011;53405;57.012;40.984;2022-09-20T21:46:37;11.35;;;5.30;;
59390;SDS011;53405;57.012;40.984;2022-09-20T21:49:09;8.35;;;4.80;;
59390;SDS011;53405;57.012;40.984;2022-09-20T21:51:40;8.98;;;5.20;;
59390;SDS011;53405;57.012;40.984;2022-09-20T21:54:09;9.20;;;5.07;;
59390;SDS011;53405;57.012;40.984;2022-09-20T21:56:37;9.73;;;5.28;;
59390;SDS011;53405;57.012;40.984;2022-09-20T21:59:06;9.48;;;5.22;;
59390;SDS011;53405;57.012;40.984;2022-09-20T22:01:37;9.07;;;4.82;;